Time;durP1;ratioP1;P1;durP2;ratioP2;P2;SDS_P1;SDS_P2;PMS_P1;PMS_P2;Temp;Humidity;BMP_temperature;BMP_pressure;BME280_temperature;BME280_humidity;BME280_pressure;Samples;Min_cycle;Max_cycle;Signal;HPM_P1;HPM_P2
2021/06/08 00:02:04;;;;;;;4.95;3.80;;;15.00;89.60;;;;;;5082593;28;20094;-68
2021/06/08 00:04:29;;;;;;;5.53;3.20;;;15.00;89.10;;;;;;5083022;28;20464;-68
2021/06/08 00:06:55;;;;;;;4.78;3.35;;;14.90;88.50;;;;;;5076636;28;20115;-68
2021/06/08 00:09:21;;;;;;;6.68;3.15;;;14.90;88.40;;;;;;5078599;28;20115;-68
2021/06/08 00:11:46;;;;;;;6.38;3.40;;;14.90;88.10;;;;;;5089166;28;20497;-68
2021/06/08 00:14:12;;;;;;;6.88;3.22;;;14.80;88.00;;;;;;5085542;28;20036;-68
2021/06/08 00:16:38;;;;;;;4.50;3.65;;;14.80;88.30;;;;;;5082012;28;20028;-68
2021/06/08 00:19:03;;;;;;;6.90;3.85;;;14.70;88.50;;;;;;5080952;28;20020;-68
2021/06/08 00:21:29;;;;;;;5.65;3.35;;;14.70;88.70;;;;;;5067345;28;20104;-68
2021/06/08 00:23:55;;;;;;;6.07;3.45;;;14.60;88.70;;;;;;5061723;28;20194;-68
2021/06/08 00:26:20;;;;;;;4.22;3.45;;;14.50;88.80;;;;;;5084549;28;20028;-68
2021/06/08 00:28:46;;;;;;;4.45;3.08;;;14.50;89.10;;;;;;5085705;28;20035;-68
2021/06/08 00:31:11;;;;;;;5.70;3.03;;;14.40;89.20;;;;;;5080488;28;20024;-68
2021/06/08 00:33:37;;;;;;;6.65;2.55;;;14.40;89.20;;;;;;5081544;28;20016;-68
2021/06/08 00:36:02;;;;;;;4.07;2.70;;;14.30;89.00;;;;;;5078084;28;20032;-68
2021/06/08 00:38:28;;;;;;;6.93;3.20;;;14.30;88.80;;;;;;5080210;28;20048;-68
2021/06/08 00:40:53;;;;;;;5.78;2.70;;;14.30;88.80;;;;;;5082133;28;20032;-68
2021/06/08 00:43:24;;;;;;;3.50;2.80;;;14.30;88.80;;;;;;5076924;28;20036;-68
2021/06/08 00:45:52;;;;;;;4.35;2.15;;;14.30;88.70;;;;;;5062774;28;20356;-68
2021/06/08 00:48:18;;;;;;;3.40;2.08;;;14.20;88.40;;;;;;5080220;28;20013;-68
2021/06/08 00:50:43;;;;;;;5.75;2.67;;;14.20;88.40;;;;;;5088688;28;20393;-68
2021/06/08 00:53:09;;;;;;;4.90;1.92;;;14.20;88.30;;;;;;5062313;28;20129;-68
2021/06/08 00:55:34;;;;;;;2.88;2.10;;;14.10;88.30;;;;;;5079525;28;20082;-68
2021/06/08 00:58:00;;;;;;;7.20;3.17;;;14.10;88.30;;;;;;5081123;28;20023;-68
2021/06/08 01:00:25;;;;;;;4.40;2.70;;;14.00;88.50;;;;;;5080922;28;20477;-68
2021/06/08 01:02:51;;;;;;;3.88;2.80;;;13.90;88.50;;;;;;5082181;28;20032;-68
2021/06/08 01:05:17;;;;;;;3.38;2.45;;;13.90;88.60;;;;;;5082786;28;20378;-68
2021/06/08 01:07:43;;;;;;;5.10;2.53;;;13.80;88.80;;;;;;5080760;28;20470;-68
2021/06/08 01:10:10;;;;;;;4.18;3.22;;;13.80;89.00;;;;;;5087491;28;20032;-68
2021/06/08 01:12:36;;;;;;;3.58;2.28;;;13.70;89.10;;;;;;5066346;28;20054;-68
2021/06/08 01:15:03;;;;;;;4.25;3.08;;;13.70;89.40;;;;;;5084476;28;20021;-68
2021/06/08 01:17:28;;;;;;;3.95;3.25;;;13.60;89.60;;;;;;5063231;28;20028;-68
2021/06/08 01:19:57;;;;;;;5.57;3.25;;;13.60;89.90;;;;;;5081358;28;20431;-68
2021/06/08 01:22:24;;;;;;;3.13;2.35;;;13.60;90.00;;;;;;5082653;28;20441;-68
2021/06/08 01:24:50;;;;;;;4.47;3.72;;;13.50;90.00;;;;;;5084067;28;20024;-68
2021/06/08 01:27:17;;;;;;;6.38;3.28;;;13.50;90.10;;;;;;5081581;28;20029;-68
2021/06/08 01:29:43;;;;;;;4.60;3.30;;;13.40;90.20;;;;;;5081320;28;20020;-68
2021/06/08 01:32:10;;;;;;;4.72;3.58;;;13.40;90.20;;;;;;5080313;28;20374;-68
2021/06/08 01:34:38;;;;;;;3.72;2.78;;;13.40;90.30;;;;;;5082609;28;20386;-68
2021/06/08 01:37:04;;;;;;;6.47;3.38;;;13.30;90.30;;;;;;5079746;28;20032;-68
2021/06/08 01:39:32;;;;;;;10.75;5.20;;;13.30;90.40;;;;;;5060647;28;20111;-68
2021/06/08 01:41:57;;;;;;;4.50;3.65;;;13.30;90.40;;;;;;5081048;28;20024;-68
2021/06/08 01:44:23;;;;;;;5.35;3.80;;;13.30;90.40;;;;;;5080437;28;20474;-68
2021/06/08 01:46:49;;;;;;;5.05;3.35;;;13.30;90.40;;;;;;5081094;28;20036;-68
2021/06/08 01:49:14;;;;;;;4.82;3.53;;;13.20;90.40;;;;;;5082733;28;20031;-68
2021/06/08 01:51:40;;;;;;;6.05;3.40;;;13.20;90.50;;;;;;5077428;28;20028;-68
2021/06/08 01:54:33;;;;;;;5.85;4.35;;;13.10;90.60;;;;;;5084614;28;20052;-68
2021/06/08 01:57:09;;;;;;;8.20;4.80;;;13.10;90.60;;;;;;5080789;28;20024;-67
2021/06/08 01:59:46;;;;;;;7.32;4.00;;;13.00;90.80;;;;;;5090489;28;20393;-66
2021/06/08 02:02:22;;;;;;;5.85;4.40;;;13.00;90.80;;;;;;5082837;28;20024;-67
2021/06/08 02:04:55;;;;;;;7.63;4.55;;;13.00;90.90;;;;;;5088086;28;20028;-66
2021/06/08 02:07:31;;;;;;;7.15;4.15;;;13.00;90.90;;;;;;5086961;28;20441;-66
2021/06/08 02:10:10;;;;;;;9.02;4.95;;;12.90;91.00;;;;;;5082713;28;20119;-67
2021/06/08 02:12:36;;;;;;;8.02;5.18;;;13.00;91.10;;;;;;5089858;28;20024;-67
2021/06/08 02:15:11;;;;;;;6.25;4.65;;;12.90;91.40;;;;;;5090728;28;20119;-67
2021/06/08 02:17:41;;;;;;;8.02;4.70;;;12.90;91.20;;;;;;5105906;28;20038;-66
2021/06/08 02:20:25;;;;;;;7.28;5.32;;;12.80;91.30;;;;;;5076657;28;20089;-67
2021/06/08 02:22:59;;;;;;;7.53;5.05;;;12.80;91.30;;;;;;5089326;28;20043;-67
2021/06/08 02:25:28;;;;;;;9.75;6.13;;;12.80;91.40;;;;;;5089800;28;20028;-67
2021/06/08 02:27:56;;;;;;;7.63;5.88;;;12.80;91.40;;;;;;5090510;28;20024;-67
2021/06/08 02:30:23;;;;;;;8.55;5.57;;;12.80;91.40;;;;;;5080192;28;20382;-66
2021/06/08 02:32:50;;;;;;;7.70;6.32;;;12.80;91.40;;;;;;5088276;28;20035;-67
2021/06/08 02:35:22;;;;;;;9.30;6.65;;;12.80;91.50;;;;;;5089069;28;20032;-67
2021/06/08 02:37:49;;;;;;;7.77;5.63;;;12.70;91.50;;;;;;5084599;28;20036;-67
2021/06/08 02:40:15;;;;;;;8.95;6.53;;;12.60;91.60;;;;;;5083070;28;20328;-67
2021/06/08 02:42:42;;;;;;;8.23;6.28;;;12.60;91.70;;;;;;5077235;28;20032;-67
2021/06/08 02:45:08;;;;;;;7.38;6.18;;;12.60;91.80;;;;;;5087321;28;20020;-67
2021/06/08 02:47:35;;;;;;;8.77;7.03;;;12.50;91.90;;;;;;5092263;28;20028;-66
2021/06/08 02:50:02;;;;;;;7.40;6.32;;;12.50;92.00;;;;;;5081019;28;20389;-67
2021/06/08 02:52:29;;;;;;;12.98;6.78;;;12.50;92.00;;;;;;5094811;28;20516;-67
2021/06/08 02:54:55;;;;;;;12.52;7.90;;;12.50;92.00;;;;;;5089228;28;20041;-67
2021/06/08 02:57:22;;;;;;;11.20;7.05;;;12.40;92.10;;;;;;5085536;28;20032;-67
2021/06/08 02:59:50;;;;;;;11.25;7.80;;;12.40;92.10;;;;;;5089956;28;20444;-67
2021/06/08 03:02:17;;;;;;;10.65;7.30;;;12.40;92.20;;;;;;5092367;28;20064;-67
2021/06/08 03:04:48;;;;;;;9.52;7.90;;;12.40;92.20;;;;;;5085130;28;20024;-67
2021/06/08 03:07:15;;;;;;;9.02;7.30;;;12.40;92.20;;;;;;5093157;28;21243;-67
2021/06/08 03:09:52;;;;;;;10.85;7.80;;;12.30;92.30;;;;;;5086254;28;20046;-67
2021/06/08 03:12:22;;;;;;;11.60;7.72;;;12.40;92.40;;;;;;5087734;28;20382;-67
2021/06/08 03:14:48;;;;;;;10.27;8.32;;;12.40;92.40;;;;;;5082927;28;20036;-67
2021/06/08 03:17:16;;;;;;;10.95;8.60;;;12.30;92.40;;;;;;5083405;28;20392;-67
2021/06/08 03:19:45;;;;;;;10.77;7.60;;;12.30;92.40;;;;;;5084761;28;20027;-67
2021/06/08 03:22:18;;;;;;;15.52;9.35;;;12.30;92.50;;;;;;5077940;28;20039;-67
2021/06/08 03:24:47;;;;;;;11.95;8.45;;;12.30;92.50;;;;;;5076671;28;20088;-67
2021/06/08 03:27:13;;;;;;;13.20;8.98;;;12.30;92.60;;;;;;5077949;28;20379;-67
2021/06/08 03:29:40;;;;;;;12.00;8.85;;;12.30;92.60;;;;;;5049133;28;20110;-67
2021/06/08 03:32:07;;;;;;;13.65;8.65;;;12.30;92.60;;;;;;5087956;28;20024;-66
2021/06/08 03:34:35;;;;;;;11.73;8.18;;;12.30;92.60;;;;;;5082445;28;20025;-67
2021/06/08 03:37:01;;;;;;;12.82;8.07;;;12.30;92.60;;;;;;5086812;28;20154;-67
2021/06/08 03:39:28;;;;;;;13.13;9.55;;;12.30;92.70;;;;;;5088933;28;20062;-67
2021/06/08 03:41:54;;;;;;;15.15;9.35;;;12.30;92.80;;;;;;5084755;28;20477;-67
2021/06/08 03:44:21;;;;;;;12.35;9.45;;;12.30;92.80;;;;;;5084046;28;20771;-67
2021/06/08 03:46:49;;;;;;;14.60;9.15;;;12.30;92.80;;;;;;5084892;28;20453;-67
2021/06/08 03:49:16;;;;;;;14.30;9.52;;;12.30;92.90;;;;;;5089621;28;20035;-68
2021/06/08 03:51:42;;;;;;;14.32;9.38;;;12.30;93.10;;;;;;5084966;28;20020;-67
2021/06/08 03:54:10;;;;;;;11.70;9.27;;;12.30;92.90;;;;;;5090466;28;20058;-67
2021/06/08 03:56:38;;;;;;;13.95;10.02;;;12.20;93.00;;;;;;5075936;28;20029;-67
2021/06/08 03:59:05;;;;;;;13.48;10.07;;;12.20;93.00;;;;;;5087361;28;20103;-67
2021/06/08 04:01:33;;;;;;;13.18;10.07;;;12.20;93.10;;;;;;5093206;28;20047;-67
2021/06/08 04:03:59;;;;;;;13.27;10.40;;;12.20;93.10;;;;;;5093604;28;20036;-67
2021/06/08 04:06:25;;;;;;;14.27;10.32;;;12.20;93.20;;;;;;5079484;28;20373;-67
2021/06/08 04:08:50;;;;;;;13.43;10.48;;;12.30;93.20;;;;;;5092283;28;20024;-67
2021/06/08 04:11:19;;;;;;;15.07;12.52;;;12.30;93.20;;;;;;5077505;28;20034;-67
2021/06/08 04:13:45;;;;;;;14.77;10.15;;;12.40;93.20;;;;;;5078456;28;20043;-66
2021/06/08 04:16:11;;;;;;;13.70;10.80;;;12.40;93.20;;;;;;5081575;28;20042;-66
2021/06/08 04:18:39;;;;;;;12.52;10.15;;;12.50;93.20;;;;;;5080526;28;20024;-67
2021/06/08 04:21:05;;;;;;;13.85;11.13;;;12.50;93.20;;;;;;5082777;28;21534;-67
2021/06/08 04:23:31;;;;;;;16.77;11.13;;;12.50;93.20;;;;;;5083083;28;20028;-67
2021/06/08 04:25:58;;;;;;;15.95;12.27;;;12.60;93.20;;;;;;5080463;28;20031;-68
2021/06/08 04:28:25;;;;;;;15.25;11.63;;;12.60;93.20;;;;;;5096139;28;20028;-67
2021/06/08 04:30:52;;;;;;;14.32;12.75;;;12.70;93.20;;;;;;5084544;28;20053;-67
2021/06/08 04:33:29;;;;;;;19.35;12.10;;;12.80;93.20;;;;;;5079620;28;20016;-67
2021/06/08 04:35:55;;;;;;;16.67;13.10;;;12.90;93.10;;;;;;5075277;28;20035;-67
2021/06/08 04:38:22;;;;;;;17.00;12.93;;;12.90;93.10;;;;;;5084357;28;20478;-66
2021/06/08 04:40:50;;;;;;;14.88;12.85;;;13.00;93.00;;;;;;5081193;28;20028;-66
2021/06/08 04:43:24;;;;;;;15.90;12.90;;;13.00;93.00;;;;;;5094471;28;20027;-66
2021/06/08 04:45:51;;;;;;;15.52;12.77;;;13.10;93.00;;;;;;5090497;28;20035;-66
2021/06/08 04:48:20;;;;;;;12.63;11.27;;;13.20;93.00;;;;;;5091671;28;20073;-66
2021/06/08 04:50:48;;;;;;;15.00;12.98;;;13.20;93.00;;;;;;5081641;28;20020;-66
2021/06/08 04:53:13;;;;;;;16.60;10.73;;;13.50;93.40;;;;;;5088541;28;20044;-66
2021/06/08 04:55:39;;;;;;;11.98;10.10;;;13.80;93.60;;;;;;5087586;28;20112;-66
2021/06/08 04:58:05;;;;;;;14.15;10.27;;;14.30;93.60;;;;;;5088971;28;20024;-66
2021/06/08 05:00:38;;;;;;;13.13;9.48;;;14.80;93.30;;;;;;5089702;28;20031;-66
2021/06/08 05:03:08;;;;;;;9.65;8.65;;;15.30;92.90;;;;;;5074893;28;20036;-66
2021/06/08 05:05:38;;;;;;;12.15;9.32;;;15.80;92.50;;;;;;5079054;28;20032;-66
2021/06/08 05:08:13;;;;;;;8.23;7.38;;;16.30;91.90;;;;;;5079766;28;20059;-66
2021/06/08 05:10:59;;;;;;;11.20;8.85;;;16.80;91.30;;;;;;5080620;28;20024;-66
2021/06/08 05:13:27;;;;;;;12.32;8.65;;;17.20;90.60;;;;;;5085600;28;20020;-67
2021/06/08 05:15:54;;;;;;;10.00;8.45;;;17.60;90.00;;;;;;5077927;28;20508;-66
2021/06/08 05:18:20;;;;;;;10.55;8.18;;;17.80;88.60;;;;;;5082776;28;20166;-66
2021/06/08 05:20:47;;;;;;;12.00;8.70;;;18.10;87.10;;;;;;5065425;28;20115;-67
2021/06/08 05:23:15;;;;;;;9.63;8.70;;;18.30;85.60;;;;;;5087599;28;20042;-67
2021/06/08 05:25:42;;;;;;;12.57;9.95;;;18.40;84.20;;;;;;5074274;28;20024;-67
2021/06/08 05:28:10;;;;;;;10.15;8.32;;;18.50;83.50;;;;;;5087219;28;20028;-67
2021/06/08 05:30:39;;;;;;;9.43;7.93;;;18.70;82.80;;;;;;5089406;28;20028;-66
2021/06/08 05:33:05;;;;;;;10.98;9.48;;;18.80;81.70;;;;;;5082807;28;20032;-66
2021/06/08 05:35:31;;;;;;;9.00;7.88;;;19.00;81.20;;;;;;5087850;28;20493;-66
2021/06/08 05:38:06;;;;;;;8.82;7.63;;;19.20;80.80;;;;;;5090686;28;20515;-66
2021/06/08 05:40:32;;;;;;;9.25;8.13;;;19.40;79.70;;;;;;5081839;28;20025;-67
2021/06/08 05:42:58;;;;;;;7.85;7.05;;;19.60;78.30;;;;;;5074314;28;20028;-67
2021/06/08 05:45:24;;;;;;;9.68;8.27;;;19.80;77.60;;;;;;5085263;28;20358;-67
2021/06/08 05:47:49;;;;;;;11.32;8.32;;;19.70;76.00;;;;;;5083011;28;20119;-67
2021/06/08 05:50:16;;;;;;;12.05;8.77;;;19.60;75.60;;;;;;5092526;28;20024;-67
2021/06/08 05:52:44;;;;;;;10.55;8.15;;;19.40;73.70;;;;;;5086246;28;20080;-67
2021/06/08 05:55:10;;;;;;;10.57;8.23;;;19.30;73.70;;;;;;5091334;28;20471;-67
2021/06/08 05:57:36;;;;;;;11.88;9.63;;;19.20;73.70;;;;;;5089977;28;20032;-67
2021/06/08 06:00:05;;;;;;;11.40;8.05;;;19.10;73.40;;;;;;5077280;28;20496;-67
2021/06/08 06:02:34;;;;;;;13.98;9.65;;;18.90;73.60;;;;;;5083924;28;20034;-67
2021/06/08 06:05:00;;;;;;;11.52;8.82;;;18.80;73.80;;;;;;5078239;28;20025;-68
2021/06/08 06:07:26;;;;;;;11.30;9.00;;;18.80;73.80;;;;;;5079442;28;20028;-68
2021/06/08 06:09:53;;;;;;;11.45;8.88;;;18.70;74.10;;;;;;5090223;28;20058;-68
2021/06/08 06:12:19;;;;;;;9.95;7.78;;;18.60;74.00;;;;;;5093672;28;20108;-68
2021/06/08 06:14:47;;;;;;;12.57;8.98;;;18.60;73.90;;;;;;5093240;28;20027;-68
2021/06/08 06:17:13;;;;;;;13.55;8.90;;;18.60;74.20;;;;;;5094041;28;20036;-68
2021/06/08 06:19:39;;;;;;;11.88;8.27;;;18.70;73.90;;;;;;5088457;28;20020;-68
2021/06/08 06:22:05;;;;;;;8.85;7.55;;;18.70;73.70;;;;;;5093108;28;20320;-68
2021/06/08 06:24:33;;;;;;;9.65;7.05;;;18.70;73.80;;;;;;5092748;28;20043;-67
2021/06/08 06:26:59;;;;;;;9.85;7.78;;;18.80;73.60;;;;;;5093403;28;20496;-67
2021/06/08 06:29:25;;;;;;;9.13;7.60;;;18.80;73.50;;;;;;5092364;28;20032;-68
2021/06/08 06:31:53;;;;;;;8.02;6.55;;;18.90;73.10;;;;;;5077065;28;20036;-67
2021/06/08 06:34:21;;;;;;;10.05;6.93;;;18.80;72.10;;;;;;5095368;28;20036;-66
2021/06/08 06:36:48;;;;;;;6.88;5.30;;;18.80;71.90;;;;;;5093720;28;20024;-67
2021/06/08 06:39:35;;;;;;;9.55;5.78;;;18.80;72.10;;;;;;5093796;28;20032;-67
2021/06/08 06:42:02;;;;;;;10.35;5.95;;;18.80;71.70;;;;;;5091190;28;20037;-67
2021/06/08 06:44:31;;;;;;;7.43;4.82;;;18.90;71.60;;;;;;5079145;28;20118;-67
2021/06/08 06:46:57;;;;;;;5.43;4.38;;;19.00;70.10;;;;;;5094831;28;20125;-66
2021/06/08 06:49:24;;;;;;;6.13;4.80;;;19.00;69.80;;;;;;5089588;28;20043;-68
2021/06/08 06:51:50;;;;;;;5.50;3.50;;;19.00;69.50;;;;;;5095059;28;20016;-67
2021/06/08 06:54:17;;;;;;;8.20;4.00;;;19.10;68.80;;;;;;5095180;28;20047;-67
2021/06/08 06:56:44;;;;;;;5.22;3.67;;;19.10;67.80;;;;;;5092952;28;20024;-67
2021/06/08 06:59:11;;;;;;;5.97;4.00;;;19.10;67.50;;;;;;5093909;28;20476;-68
2021/06/08 07:01:36;;;;;;;5.25;2.90;;;19.20;67.40;;;;;;5085888;28;20331;-67
2021/06/08 07:04:03;;;;;;;4.25;2.85;;;19.30;66.30;;;;;;5095187;28;20054;-67
2021/06/08 07:06:30;;;;;;;6.60;4.20;;;19.40;66.40;;;;;;5095257;28;20035;-66
2021/06/08 07:08:57;;;;;;;4.53;2.97;;;19.50;65.40;;;;;;5093459;28;20036;-68
2021/06/08 07:11:24;;;;;;;6.00;3.17;;;19.50;65.10;;;;;;5090602;28;20055;-68
2021/06/08 07:13:51;;;;;;;5.90;3.40;;;19.60;65.30;;;;;;5093015;28;20031;-67
2021/06/08 07:16:18;;;;;;;5.88;4.35;;;19.80;65.30;;;;;;5092994;28;20032;-68
2021/06/08 07:18:47;;;;;;;5.85;3.85;;;19.90;64.80;;;;;;5095162;28;20074;-68
2021/06/08 07:21:15;;;;;;;8.40;3.72;;;20.00;63.70;;;;;;5092943;28;20478;-67
2021/06/08 07:23:41;;;;;;;6.13;3.75;;;19.90;63.30;;;;;;5092283;28;20032;-67
2021/06/08 07:26:07;;;;;;;4.82;2.60;;;20.00;63.80;;;;;;5089407;28;20020;-67
2021/06/08 07:28:34;;;;;;;4.57;3.60;;;20.10;63.10;;;;;;5094350;28;20023;-67
2021/06/08 07:31:00;;;;;;;7.40;5.32;;;20.10;62.60;;;;;;5092784;28;20481;-68
2021/06/08 07:33:30;;;;;;;10.38;5.60;;;20.20;63.10;;;;;;5091259;28;20112;-68
2021/06/08 07:36:08;;;;;;;10.07;6.40;;;20.30;64.10;;;;;;5094792;28;20028;-67
2021/06/08 07:39:00;;;;;;;5.80;4.85;;;20.40;64.10;;;;;;5091985;28;20565;-66
2021/06/08 07:42:06;;;;;;;7.57;5.82;;;20.40;64.10;;;;;;5074607;28;20605;-66
2021/06/08 07:44:39;;;;;;;7.95;5.50;;;20.40;64.40;;;;;;5043192;28;20067;-66
2021/06/08 07:47:06;;;;;;;7.38;4.45;;;20.30;63.80;;;;;;5074576;28;20063;-66
2021/06/08 07:49:34;;;;;;;8.93;3.60;;;20.30;63.70;;;;;;5072942;28;20529;-66
2021/06/08 07:52:03;;;;;;;6.25;4.07;;;20.30;63.30;;;;;;5075288;28;20440;-67
2021/06/08 07:54:30;;;;;;;6.55;4.32;;;20.40;62.90;;;;;;5092909;28;20052;-67
2021/06/08 07:56:57;;;;;;;6.53;4.28;;;20.50;62.40;;;;;;5085793;28;20024;-66
2021/06/08 07:59:22;;;;;;;3.88;3.45;;;20.50;62.00;;;;;;5089672;28;20072;-66
2021/06/08 08:01:48;;;;;;;7.32;5.18;;;20.60;62.40;;;;;;5091003;28;20483;-66
2021/06/08 08:04:19;;;;;;;8.10;4.97;;;20.70;62.30;;;;;;5091982;28;20028;-68
2021/06/08 08:06:52;;;;;;;7.97;5.20;;;20.70;62.70;;;;;;5072817;28;20021;-67
2021/06/08 08:09:20;;;;;;;6.85;5.28;;;20.70;62.70;;;;;;5073270;28;20024;-67
2021/06/08 08:11:46;;;;;;;8.73;5.97;;;20.70;62.80;;;;;;5091991;28;20016;-67
2021/06/08 08:14:14;;;;;;;7.97;5.50;;;20.70;63.10;;;;;;5093701;28;20039;-67
2021/06/08 08:16:44;;;;;;;6.47;5.28;;;20.80;63.40;;;;;;5093628;28;20028;-67
2021/06/08 08:19:10;;;;;;;9.77;5.68;;;20.90;64.00;;;;;;5091843;28;20024;-67
2021/06/08 08:21:36;;;;;;;6.78;4.70;;;21.10;63.90;;;;;;5092764;28;20035;-67
2021/06/08 08:24:02;;;;;;;5.43;4.93;;;21.20;64.20;;;;;;5084484;28;20036;-67
2021/06/08 08:26:27;;;;;;;8.50;5.63;;;21.30;63.90;;;;;;5079112;28;20027;-67
2021/06/08 08:28:58;;;;;;;4.72;4.30;;;21.40;64.00;;;;;;5093821;28;20079;-67
2021/06/08 08:31:27;;;;;;;6.07;4.40;;;21.40;64.00;;;;;;5089263;28;20031;-67
2021/06/08 08:33:52;;;;;;;9.18;5.38;;;21.50;63.60;;;;;;5091798;28;20134;-67
2021/06/08 08:36:18;;;;;;;7.60;5.63;;;21.60;63.20;;;;;;5093618;28;20028;-67
2021/06/08 08:38:44;;;;;;;6.95;5.50;;;21.60;63.30;;;;;;5082585;28;20527;-67
2021/06/08 08:41:10;;;;;;;5.88;4.75;;;21.70;64.10;;;;;;5090781;28;20020;-67
2021/06/08 08:43:37;;;;;;;7.65;5.57;;;21.90;64.10;;;;;;5092934;28;20032;-67
2021/06/08 08:46:03;;;;;;;7.03;5.03;;;22.10;63.40;;;;;;5091157;28;20035;-67
2021/06/08 08:48:31;;;;;;;6.72;4.85;;;22.10;63.60;;;;;;5086504;28;20547;-66
2021/06/08 08:50:56;;;;;;;6.97;4.95;;;22.20;64.30;;;;;;5093374;28;20466;-67
2021/06/08 08:53:23;;;;;;;6.55;4.88;;;22.30;63.30;;;;;;5088877;28;20047;-67
2021/06/08 08:55:48;;;;;;;6.53;5.00;;;22.40;62.90;;;;;;5082441;28;20032;-67
2021/06/08 08:58:16;;;;;;;6.57;3.72;;;22.50;62.70;;;;;;5092104;28;20035;-67
2021/06/08 09:00:44;;;;;;;5.38;3.42;;;22.40;62.50;;;;;;5089797;28;20381;-67
2021/06/08 09:03:12;;;;;;;4.72;3.65;;;22.50;62.10;;;;;;5089116;28;20024;-67
2021/06/08 09:05:38;;;;;;;5.05;4.50;;;22.40;62.00;;;;;;5093502;28;20052;-66
2021/06/08 09:08:06;;;;;;;5.30;3.97;;;22.40;62.00;;;;;;5092054;28;20377;-66
2021/06/08 09:10:34;;;;;;;8.32;4.38;;;22.60;63.00;;;;;;5092399;28;20043;-67
2021/06/08 09:12:59;;;;;;;6.88;5.07;;;22.70;63.20;;;;;;5092199;28;20481;-66
2021/06/08 09:15:25;;;;;;;3.92;3.50;;;22.80;61.60;;;;;;5092912;28;20027;-66
2021/06/08 09:17:58;;;;;;;4.65;3.63;;;22.90;61.60;;;;;;5075924;28;20027;-66
2021/06/08 09:20:25;;;;;;;4.93;2.70;;;23.00;61.60;;;;;;5089530;28;20478;-66
2021/06/08 09:22:56;;;;;;;6.78;4.10;;;23.00;61.40;;;;;;5078271;28;20054;-66
2021/06/08 09:25:38;;;;;;;3.90;3.23;;;23.10;60.60;;;;;;5089772;28;20035;-67
2021/06/08 09:28:27;;;;;;;4.05;3.00;;;23.20;60.30;;;;;;5089403;28;20023;-66
2021/06/08 09:31:15;;;;;;;3.80;3.00;;;23.20;59.50;;;;;;5086438;28;20025;-66
2021/06/08 09:33:45;;;;;;;4.10;2.80;;;23.10;59.40;;;;;;5091568;28;20027;-66
2021/06/08 09:36:23;;;;;;;4.93;2.47;;;23.20;58.50;;;;;;5090392;28;20039;-66
2021/06/08 09:38:59;;;;;;;4.22;2.35;;;23.20;59.30;;;;;;5064196;28;20025;-66
2021/06/08 09:41:32;;;;;;;6.13;3.17;;;23.20;57.60;;;;;;5082967;28;20020;-66
2021/06/08 09:44:05;;;;;;;6.38;3.80;;;23.10;58.20;;;;;;5092194;28;20027;-66
2021/06/08 09:46:42;;;;;;;5.50;3.72;;;23.20;58.30;;;;;;5096611;28;20378;-66
2021/06/08 09:49:08;;;;;;;5.80;3.38;;;23.20;57.80;;;;;;5077542;28;20024;-66
2021/06/08 09:51:56;;;;;;;7.97;3.50;;;23.20;58.50;;;;;;5094682;28;20039;-66
2021/06/08 09:54:40;;;;;;;5.22;2.97;;;23.30;58.40;;;;;;5096122;28;20048;-66
2021/06/08 09:57:27;;;;;;;5.32;3.03;;;23.30;57.90;;;;;;5076758;28;20101;-66
2021/06/08 10:00:04;;;;;;;4.43;2.95;;;23.30;58.00;;;;;;5087880;28;20031;-66
2021/06/08 10:02:45;;;;;;;3.67;3.20;;;23.40;58.40;;;;;;5079416;28;20031;-66
2021/06/08 10:05:31;;;;;;;5.05;3.70;;;23.60;58.10;;;;;;5067444;28;20048;-66
2021/06/08 10:08:00;;;;;;;4.97;3.70;;;23.80;56.90;;;;;;5077507;28;20137;-66
2021/06/08 10:10:34;;;;;;;5.32;3.15;;;23.60;56.60;;;;;;5096132;28;20019;-66
2021/06/08 10:13:11;;;;;;;3.17;2.83;;;23.60;56.80;;;;;;5091747;28;20535;-66
2021/06/08 10:16:03;;;;;;;3.95;2.05;;;23.60;56.80;;;;;;5076235;28;20033;-66
2021/06/08 10:18:49;;;;;;;4.43;2.90;;;23.80;57.30;;;;;;5087018;28;20024;-66
2021/06/08 10:21:15;;;;;;;2.47;1.60;;;23.80;55.80;;;;;;5075453;28;20043;-66
2021/06/08 10:23:41;;;;;;;4.38;2.17;;;23.80;56.20;;;;;;5095293;28;20058;-66
2021/06/08 10:26:13;;;;;;;3.30;1.85;;;23.80;56.20;;;;;;5078117;28;20024;-66
2021/06/08 10:28:39;;;;;;;2.97;2.33;;;23.70;54.70;;;;;;5077925;28;20028;-66
2021/06/08 10:31:05;;;;;;;4.53;2.20;;;23.70;55.00;;;;;;5095691;28;20032;-67
2021/06/08 10:33:32;;;;;;;2.58;1.95;;;23.60;55.40;;;;;;5095210;28;20031;-66
2021/06/08 10:35:58;;;;;;;5.57;1.58;;;23.80;55.60;;;;;;5091862;28;20023;-66
2021/06/08 10:38:25;;;;;;;1.90;0.95;;;23.90;55.00;;;;;;5088258;28;20477;-66
2021/06/08 10:40:56;;;;;;;2.55;1.55;;;24.00;54.40;;;;;;5090773;28;20463;-66
2021/06/08 10:43:29;;;;;;;4.68;2.67;;;24.00;54.10;;;;;;5090090;28;20028;-66
2021/06/08 10:45:56;;;;;;;3.78;1.85;;;24.10;54.50;;;;;;5064693;28;20065;-66
2021/06/08 10:48:32;;;;;;;4.32;3.05;;;24.30;54.80;;;;;;5075311;28;20107;-66
2021/06/08 10:51:22;;;;;;;3.90;2.88;;;24.30;54.10;;;;;;5058832;28;20020;-66
2021/06/08 10:53:57;;;;;;;5.45;3.55;;;24.30;54.20;;;;;;5087898;28;20054;-67
2021/06/08 10:56:28;;;;;;;4.93;3.45;;;24.20;55.20;;;;;;5058980;28;20046;-67
2021/06/08 10:59:10;;;;;;;4.40;2.88;;;24.30;54.40;;;;;;5095376;28;20062;-68
2021/06/08 11:01:42;;;;;;;4.43;2.80;;;24.40;54.20;;;;;;5076881;28;20489;-68
2021/06/08 11:04:24;;;;;;;4.07;2.08;;;24.40;53.90;;;;;;5076707;28;20508;-67
2021/06/08 11:06:59;;;;;;;3.92;2.63;;;24.50;54.90;;;;;;5095303;28;20016;-65
2021/06/08 11:09:31;;;;;;;4.72;2.83;;;24.70;54.90;;;;;;5066867;28;20028;-67
2021/06/08 11:12:15;;;;;;;3.40;2.60;;;24.80;54.00;;;;;;5094029;28;20127;-65
2021/06/08 11:14:43;;;;;;;2.35;2.05;;;24.70;54.70;;;;;;5095148;28;20028;-66
2021/06/08 11:17:13;;;;;;;3.58;2.10;;;24.80;54.70;;;;;;5091350;28;20020;-67
2021/06/08 11:19:45;;;;;;;3.50;2.65;;;24.90;54.90;;;;;;5074868;28;20046;-67
2021/06/08 11:22:13;;;;;;;2.60;1.75;;;25.10;54.80;;;;;;5092942;28;20614;-67
2021/06/08 11:24:41;;;;;;;4.22;2.47;;;25.10;54.30;;;;;;5091816;28;20049;-67
2021/06/08 11:27:07;;;;;;;3.50;2.45;;;25.20;53.60;;;;;;5092629;28;20028;-67
2021/06/08 11:29:53;;;;;;;2.92;2.63;;;25.10;54.60;;;;;;5093264;28;20016;-68
2021/06/08 11:32:28;;;;;;;4.07;3.08;;;25.20;54.10;;;;;;5086212;28;20032;-66
2021/06/08 11:35:20;;;;;;;6.43;4.50;;;25.20;53.40;;;;;;5094082;28;20531;-66
2021/06/08 11:38:15;;;;;;;3.72;3.33;;;25.20;52.80;;;;;;5089215;28;20028;-67
2021/06/08 11:40:42;;;;;;;3.75;2.35;;;25.10;53.40;;;;;;5081494;28;20036;-67
2021/06/08 11:43:10;;;;;;;3.92;3.00;;;24.90;53.50;;;;;;5085120;28;20028;-67
2021/06/08 11:45:47;;;;;;;3.60;2.78;;;24.90;53.50;;;;;;5082411;28;20486;-66
2021/06/08 11:48:35;;;;;;;3.90;3.22;;;24.90;54.00;;;;;;5071514;28;20039;-66
2021/06/08 11:51:03;;;;;;;4.95;4.22;;;25.10;54.40;;;;;;5075775;28;20020;-67
2021/06/08 11:53:29;;;;;;;5.15;4.60;;;25.10;52.70;;;;;;5091497;28;20082;-66
2021/06/08 11:56:09;;;;;;;4.47;3.05;;;25.10;52.70;;;;;;5094992;28;20516;-66
2021/06/08 11:58:39;;;;;;;3.30;2.45;;;25.00;53.80;;;;;;5093122;28;20390;-67
2021/06/08 12:01:28;;;;;;;4.47;3.55;;;25.00;53.20;;;;;;5092114;28;20032;-67
2021/06/08 12:04:00;;;;;;;4.10;3.30;;;25.00;53.20;;;;;;5086847;28;20133;-67
2021/06/08 12:06:54;;;;;;;4.15;2.22;;;25.10;52.70;;;;;;5089675;28;20028;-67
2021/06/08 12:09:23;;;;;;;3.28;2.40;;;25.10;53.40;;;;;;5081855;28;20115;-67
2021/06/08 12:11:50;;;;;;;4.07;2.78;;;25.20;53.90;;;;;;5084144;28;20477;-67
2021/06/08 12:14:18;;;;;;;4.72;3.78;;;25.30;53.40;;;;;;5093994;28;20080;-67
2021/06/08 12:16:55;;;;;;;4.38;3.83;;;25.30;51.80;;;;;;5093443;28;20032;-67
2021/06/08 12:19:34;;;;;;;6.93;3.83;;;25.20;51.60;;;;;;5091611;28;20501;-67
2021/06/08 12:22:26;;;;;;;5.70;3.67;;;25.20;51.70;;;;;;5092165;28;20035;-67
2021/06/08 12:24:55;;;;;;;6.28;5.22;;;25.50;52.20;;;;;;5079030;28;20073;-67
2021/06/08 12:27:37;;;;;;;6.70;4.45;;;25.70;51.60;;;;;;5092499;28;20355;-67
2021/06/08 12:30:06;;;;;;;;;;;25.70;51.60;;;;;;5094320;28;20382;-67
2021/06/08 12:32:32;;;;;;;4.15;3.72;;;25.80;51.90;;;;;;5090157;28;19938;-67
2021/06/08 12:34:58;;;;;;;4.40;3.28;;;25.90;51.10;;;;;;5086036;28;20494;-67
2021/06/08 12:37:26;;;;;;;4.60;3.28;;;25.90;50.60;;;;;;5079852;28;20036;-67
2021/06/08 12:39:54;;;;;;;3.88;2.80;;;26.00;51.20;;;;;;5085311;28;20359;-67
2021/06/08 12:42:20;;;;;;;3.85;2.85;;;26.20;51.30;;;;;;5079588;28;20028;-67
2021/06/08 12:44:47;;;;;;;3.60;2.85;;;26.40;51.20;;;;;;5087271;28;20066;-67
2021/06/08 12:47:15;;;;;;;3.60;2.58;;;26.40;50.90;;;;;;5091291;28;20107;-67
2021/06/08 12:49:42;;;;;;;2.72;1.98;;;26.10;51.30;;;;;;5075846;28;20094;-67
2021/06/08 12:52:12;;;;;;;4.47;2.45;;;26.10;51.70;;;;;;5093150;28;20023;-67
2021/06/08 12:54:41;;;;;;;5.22;3.10;;;26.00;51.10;;;;;;5088519;28;20028;-67
2021/06/08 12:57:24;;;;;;;4.22;3.30;;;26.00;50.30;;;;;;5092173;28;20040;-67